Aviation Digital Data Service (ADDS)

Output produced by TAFs form (1501 UTC 05 July 2015)
found at http://aviationweather.gov/adds/tafs/
 
KTEX 051125Z 0512/0612 11004KT P6SM BKN070 BKN120 
     FM051800 22005KT P6SM VCTS SCT050CB OVC080 
     TEMPO 0520/0524 VRB15G30KT -TSRA 
     FM060000 20005KT P6SM OVC100 
     FM060600 VRB03KT P6SM SCT100 SCT200